Time;durP1;ratioP1;P1;durP2;ratioP2;P2;SDS_P1;SDS_P2;PMS_P1;PMS_P2;Temp;Humidity;BMP_temperature;BMP_pressure;BME280_temperature;BME280_humidity;BME280_pressure;Samples;Min_cycle;Max_cycle;Signal;HPM_P1;HPM_P2
2024/01/01 00:02:44;;;;;;;54.43;36.77;;;2.10;99.90;4.50;95848.00;;;;5047497;28;20693;-82
2024/01/01 00:05:33;;;;;;;8.33;3.37;;;1.50;99.90;4.20;95864.00;;;;5052784;28;20201;-85
2024/01/01 00:08:22;;;;;;;33.87;24.97;;;2.50;99.90;3.80;95855.00;;;;5054142;28;20204;-84
2024/01/01 00:11:12;;;;;;;43.37;25.53;;;2.10;99.90;3.90;95856.00;;;;5054346;28;20451;-85
2024/01/01 00:14:01;;;;;;;12.40;6.00;;;1.90;99.90;4.10;95863.00;;;;5054559;28;20208;-86
2024/01/01 00:16:50;;;;;;;15.67;12.80;;;2.00;99.90;3.90;95879.00;;;;5050131;28;20857;-86
2024/01/01 00:19:39;;;;;;;14.50;8.10;;;2.10;99.90;3.90;95889.00;;;;5054971;28;20420;-86
2024/01/01 00:22:27;;;;;;;6.43;2.47;;;2.10;99.90;4.20;95885.00;;;;5052734;28;20224;-84
2024/01/01 00:25:16;;;;;;;10.70;4.00;;;2.10;99.90;4.60;95899.00;;;;5053738;28;20205;-85
2024/01/01 00:28:08;;;;;;;7.20;2.90;;;2.10;99.90;4.80;95909.00;;;;5054923;28;20239;-87
2024/01/01 00:30:57;;;;;;;12.17;4.80;;;2.10;99.90;5.00;95915.00;;;;5053733;28;20696;-86
2024/01/01 00:33:45;;;;;;;13.17;4.93;;;2.40;99.90;5.10;95910.00;;;;5046891;28;20208;-87
2024/01/01 00:36:34;;;;;;;4.60;2.03;;;2.40;99.90;5.20;95896.00;;;;5055660;28;20486;-85
2024/01/01 00:39:23;;;;;;;5.80;2.43;;;2.50;99.90;5.30;95886.00;;;;5062152;28;20200;-86
2024/01/01 00:42:12;;;;;;;10.80;4.20;;;2.80;99.90;5.50;95904.00;;;;5062528;28;20212;-87
2024/01/01 00:45:02;;;;;;;6.50;2.60;;;2.70;99.90;5.70;95927.00;;;;5059114;28;20643;-86
2024/01/01 00:47:51;;;;;;;8.37;3.37;;;2.80;99.90;5.80;95925.00;;;;5054910;28;20239;-86
2024/01/01 00:50:40;;;;;;;5.23;2.23;;;3.20;99.90;6.00;95930.00;;;;5058991;28;20204;-88
2024/01/01 00:53:29;;;;;;;4.90;2.10;;;3.30;99.90;6.10;95937.00;;;;5060045;28;20211;-86
2024/01/01 00:56:18;;;;;;;9.23;3.73;;;3.30;99.90;6.10;95951.00;;;;5058086;28;20232;-86
2024/01/01 00:59:07;;;;;;;8.17;3.17;;;3.50;99.90;6.10;95948.00;;;;5058277;28;20200;-86
2024/01/01 01:01:57;;;;;;;4.73;2.00;;;3.30;99.90;6.20;95957.00;;;;5058360;28;20216;-87
2024/01/01 01:04:46;;;;;;;6.23;2.53;;;3.60;99.90;6.30;95961.00;;;;5055412;28;20717;-85
2024/01/01 01:07:39;;;;;;;10.83;4.03;;;3.70;99.90;6.30;95951.00;;;;5062810;28;20280;-86
2024/01/01 01:10:28;;;;;;;5.73;2.30;;;3.60;99.90;6.30;95947.00;;;;5061047;28;20216;-88
2024/01/01 01:13:17;;;;;;;9.97;3.90;;;3.70;99.90;6.10;95941.00;;;;5059815;28;20664;-86
2024/01/01 01:16:07;;;;;;;7.47;2.77;;;3.60;99.90;6.20;95944.00;;;;5057699;28;20240;-85
2024/01/01 01:18:59;;;;;;;4.13;1.70;;;3.80;99.90;6.60;95962.00;;;;5058416;28;20689;-86
2024/01/01 01:21:48;;;;;;;6.47;2.57;;;4.00;99.90;6.60;95962.00;;;;5059570;28;20223;-88
2024/01/01 01:24:37;;;;;;;5.60;2.10;;;4.00;99.90;6.60;95958.00;;;;5060919;28;20204;-85
2024/01/01 01:27:26;;;;;;;5.27;2.10;;;3.90;99.90;6.60;95960.00;;;;5058360;28;20220;-87
2024/01/01 01:30:15;;;;;;;9.37;3.53;;;4.10;99.90;6.60;95972.00;;;;5056519;28;20216;-88
2024/01/01 01:33:04;;;;;;;4.43;1.77;;;4.00;99.90;6.70;95977.00;;;;5057938;28;20284;-86
2024/01/01 01:35:55;;;;;;;5.83;2.27;;;4.10;99.90;6.80;95982.00;;;;5056467;28;20220;-88
2024/01/01 01:38:43;;;;;;;7.60;2.87;;;4.10;99.90;6.70;95986.00;;;;5053964;28;20201;-87
2024/01/01 01:41:32;;;;;;;5.17;2.10;;;4.20;99.90;6.70;95983.00;;;;5051657;28;20207;-87
2024/01/01 01:44:21;;;;;;;7.17;2.70;;;4.10;99.90;6.70;95971.00;;;;5058215;28;20208;-88
2024/01/01 01:47:12;;;;;;;11.50;4.30;;;3.70;99.90;6.10;95979.00;;;;5057196;28;20228;-86
2024/01/01 01:50:02;;;;;;;8.73;3.17;;;4.20;99.90;6.70;95977.00;;;;5057681;28;20211;-87
2024/01/01 01:52:52;;;;;;;8.47;3.17;;;4.20;99.90;6.70;95963.00;;;;5058245;28;20216;-88
2024/01/01 01:55:44;;;;;;;6.80;2.60;;;4.20;99.90;6.50;95960.00;;;;5055477;28;20212;-88
2024/01/01 01:58:34;;;;;;;6.20;2.43;;;4.80;99.90;6.30;95963.00;;;;5058738;28;20207;-85
2024/01/01 02:01:23;;;;;;;10.40;4.00;;;4.00;99.90;6.60;95962.00;;;;5056960;28;20212;-88
2024/01/01 02:04:13;;;;;;;11.47;4.03;;;4.40;99.90;6.50;95975.00;;;;5058277;28;20204;-87
2024/01/01 02:07:02;;;;;;;6.60;2.40;;;4.10;99.90;6.60;95955.00;;;;5059090;28;20224;-86
2024/01/01 02:09:53;;;;;;;5.87;2.33;;;4.30;99.90;6.60;95929.00;;;;5055398;28;20212;-87
2024/01/01 02:12:45;;;;;;;4.97;1.90;;;4.00;99.90;6.40;95946.00;;;;5058323;28;20201;-87
2024/01/01 02:15:34;;;;;;;6.43;2.30;;;4.10;99.90;6.60;95932.00;;;;5044535;28;20220;-85
2024/01/01 02:18:25;;;;;;;6.70;2.40;;;4.10;99.90;6.60;95915.00;;;;5059252;28;20204;-87
2024/01/01 02:21:14;;;;;;;11.90;4.10;;;4.10;99.90;6.60;95910.00;;;;5059802;28;20829;-86
2024/01/01 02:24:05;;;;;;;8.40;3.03;;;4.10;99.90;6.60;95906.00;;;;5058917;28;20224;-87
2024/01/01 02:26:54;;;;;;;5.53;2.03;;;4.20;99.90;6.60;95908.00;;;;5054456;28;20276;-87
2024/01/01 02:29:43;;;;;;;5.90;2.37;;;4.00;99.90;6.70;95894.00;;;;5058560;28;20201;-87
2024/01/01 02:32:32;;;;;;;5.43;2.10;;;4.50;99.90;6.60;95881.00;;;;5059686;28;20690;-88
2024/01/01 02:35:20;;;;;;;11.60;4.27;;;4.10;99.90;6.70;95881.00;;;;5057169;28;20220;-87
2024/01/01 02:38:09;;;;;;;11.67;4.20;;;4.10;99.90;6.60;95872.00;;;;5058102;28;20632;-86
2024/01/01 02:41:00;;;;;;;13.13;4.67;;;4.00;99.90;6.70;95874.00;;;;5057840;28;20193;-86
2024/01/01 02:43:49;;;;;;;13.03;4.53;;;4.10;99.90;6.80;95862.00;;;;5057746;28;20207;-85
2024/01/01 02:46:38;;;;;;;6.10;2.33;;;4.40;99.90;6.50;95853.00;;;;5055172;28;20603;-85
2024/01/01 02:49:27;;;;;;;7.10;2.63;;;4.10;99.90;6.80;95874.00;;;;5057562;28;20208;-86
2024/01/01 02:52:15;;;;;;;16.83;5.77;;;3.90;99.90;6.80;95873.00;;;;5056053;28;20216;-86
2024/01/01 02:55:05;;;;;;;6.83;2.50;;;4.40;99.90;6.60;95882.00;;;;5058702;28;20212;-86
2024/01/01 02:57:55;;;;;;;9.40;3.33;;;4.30;99.90;6.60;95881.00;;;;5053923;28;20669;-86
2024/01/01 03:00:47;;;;;;;11.70;3.93;;;4.50;99.90;6.80;95888.00;;;;5053599;28;20209;-86
2024/01/01 03:03:36;;;;;;;10.87;3.67;;;4.20;99.90;6.90;95905.00;;;;5056457;28;20282;-86
2024/01/01 03:06:25;;;;;;;9.40;3.30;;;4.50;99.90;6.70;95894.00;;;;5058992;28;20232;-86
2024/01/01 03:09:14;;;;;;;13.77;4.60;;;4.00;99.90;6.70;95903.00;;;;5067823;28;20211;-85
2024/01/01 03:12:03;;;;;;;4.33;1.63;;;4.20;99.90;6.70;95898.00;;;;5073432;28;20228;-86
2024/01/01 03:14:53;;;;;;;5.67;2.10;;;4.20;99.90;6.70;95904.00;;;;5067021;28;20201;-86
2024/01/01 03:17:42;;;;;;;12.63;4.27;;;3.90;99.90;6.80;95920.00;;;;5064993;28;20224;-86
2024/01/01 03:20:33;;;;;;;7.97;2.90;;;3.70;99.90;6.70;95909.00;;;;5059986;28;20207;-86
2024/01/01 03:23:22;;;;;;;9.00;3.30;;;4.20;99.90;6.70;95920.00;;;;5059941;28;20213;-87
2024/01/01 03:26:12;;;;;;;11.57;3.90;;;4.10;99.90;6.70;95913.00;;;;5058611;28;20213;-86
2024/01/01 03:29:01;;;;;;;8.87;2.97;;;4.60;99.90;6.70;95916.00;;;;5059467;28;20201;-86
2024/01/01 03:31:51;;;;;;;7.77;2.70;;;4.40;99.90;6.70;95915.00;;;;5052311;28;20657;-86
2024/01/01 03:34:40;;;;;;;10.00;3.37;;;3.90;99.90;6.70;95921.00;;;;5058045;28;20597;-86
2024/01/01 03:37:29;;;;;;;9.37;3.20;;;3.80;99.90;6.50;95928.00;;;;5056403;28;20227;-86
2024/01/01 03:40:19;;;;;;;8.60;2.87;;;4.20;99.90;6.30;95921.00;;;;5056759;28;20223;-86
2024/01/01 03:43:08;;;;;;;6.17;2.23;;;4.30;99.90;6.30;95927.00;;;;5056427;28;20673;-86
2024/01/01 03:45:57;;;;;;;8.17;3.10;;;4.10;99.90;6.10;95928.00;;;;5052181;28;20204;-85
2024/01/01 03:48:47;;;;;;;6.10;2.33;;;3.90;99.90;6.20;95930.00;;;;5056916;28;20205;-86
2024/01/01 03:51:36;;;;;;;7.03;2.73;;;4.00;99.90;6.20;95939.00;;;;5049506;28;20200;-86
2024/01/01 03:54:24;;;;;;;11.00;4.13;;;4.10;99.90;5.70;95944.00;;;;5045308;28;20211;-86
2024/01/01 03:57:13;;;;;;;7.47;2.67;;;3.40;99.90;5.80;95951.00;;;;5056579;28;20229;-86
2024/01/01 04:00:03;;;;;;;10.97;3.63;;;3.60;99.90;5.70;95977.00;;;;5058192;28;20208;-86
2024/01/01 04:02:53;;;;;;;7.90;2.83;;;3.40;99.90;5.50;95982.00;;;;5050607;28;20204;-86
2024/01/01 04:05:43;;;;;;;8.13;2.80;;;3.60;99.90;5.50;95981.00;;;;5058772;28;20262;-86
2024/01/01 04:08:32;;;;;;;6.97;2.33;;;3.70;99.90;6.10;95995.00;;;;5045899;28;20216;-86
2024/01/01 04:11:21;;;;;;;14.30;4.70;;;3.70;99.90;6.20;95994.00;;;;5055667;28;20219;-86
2024/01/01 04:14:10;;;;;;;9.73;3.43;;;3.50;99.90;6.40;95999.00;;;;5057807;28;20204;-85
2024/01/01 04:16:59;;;;;;;8.37;3.00;;;3.70;99.90;6.10;95989.00;;;;5053058;28;20636;-86
2024/01/01 04:19:48;;;;;;;3.90;1.40;;;4.00;99.90;6.20;95977.00;;;;5050351;28;20223;-85
2024/01/01 04:22:40;;;;;;;10.07;3.23;;;3.30;99.90;6.10;95980.00;;;;5050714;28;20205;-85
2024/01/01 04:25:29;;;;;;;7.83;2.57;;;3.80;99.90;6.40;95972.00;;;;5049016;28;20200;-85
2024/01/01 04:28:18;;;;;;;11.23;3.87;;;3.80;99.90;6.50;95971.00;;;;5056288;28;20208;-83
2024/01/01 04:31:07;;;;;;;9.53;3.17;;;3.90;99.90;6.60;95974.00;;;;5053690;28;20205;-85
2024/01/01 04:33:56;;;;;;;10.07;3.60;;;4.00;99.90;6.50;95987.00;;;;5054715;28;20219;-86
2024/01/01 04:36:45;;;;;;;6.57;2.47;;;4.10;99.90;6.40;96000.00;;;;5048948;28;20231;-86
2024/01/01 04:39:35;;;;;;;6.17;2.30;;;4.10;99.90;6.50;96013.00;;;;5049537;28;20207;-86
2024/01/01 04:42:24;;;;;;;11.57;4.17;;;3.90;99.90;6.60;96004.00;;;;5055867;28;20208;-86
2024/01/01 04:45:13;;;;;;;13.23;4.43;;;3.60;99.90;6.60;95998.00;;;;5055303;28;20201;-85
2024/01/01 04:48:02;;;;;;;7.07;2.43;;;3.60;99.90;6.40;96010.00;;;;5060955;28;20216;-85
2024/01/01 04:50:51;;;;;;;18.77;5.77;;;4.00;99.90;6.20;96034.00;;;;5052035;28;20617;-85
2024/01/01 04:53:40;;;;;;;10.07;3.33;;;3.90;99.90;6.20;96040.00;;;;5058609;28;20211;-85
2024/01/01 04:56:30;;;;;;;8.93;3.00;;;4.00;99.90;6.40;96042.00;;;;5052617;28;20213;-84
2024/01/01 04:59:19;;;;;;;16.30;5.13;;;3.50;99.90;6.50;96050.00;;;;5048376;28;20284;-85
2024/01/01 05:02:08;;;;;;;28.67;17.77;;;4.30;99.90;6.20;96073.00;;;;5056621;28;20215;-85
2024/01/01 05:04:57;;;;;;;48.20;36.40;;;3.80;99.90;6.20;96077.00;;;;5043693;28;20203;-85
2024/01/01 05:07:46;;;;;;;17.20;5.30;;;3.80;99.90;6.20;96085.00;;;;5057356;28;20246;-86
2024/01/01 05:10:36;;;;;;;8.63;2.83;;;3.60;99.90;6.30;96076.00;;;;5062332;28;20207;-86
2024/01/01 05:13:26;;;;;;;12.43;4.13;;;3.90;99.90;6.40;96080.00;;;;5049425;28;20616;-86
2024/01/01 05:16:15;;;;;;;15.30;4.90;;;3.90;99.90;6.50;96085.00;;;;5056697;28;20228;-86
2024/01/01 05:19:04;;;;;;;2.43;1.57;;;3.90;99.90;6.60;96093.00;;;;5049609;28;20555;-86
2024/01/01 05:21:53;;;;;;;10.07;3.20;;;4.00;99.90;6.60;96091.00;;;;5047990;28;20204;-86
2024/01/01 05:24:42;;;;;;;3.33;1.30;;;3.30;99.90;6.60;96099.00;;;;5057359;28;20239;-86
2024/01/01 05:27:31;;;;;;;13.60;4.27;;;3.90;99.90;6.60;96107.00;;;;5055300;28;20618;-86
2024/01/01 05:30:21;;;;;;;13.33;4.20;;;4.00;99.90;6.50;96086.00;;;;5053110;28;20216;-86
2024/01/01 05:33:10;;;;;;;8.87;2.87;;;3.90;99.90;6.60;96088.00;;;;5049135;28;20216;-86
2024/01/01 05:35:59;;;;;;;12.80;4.00;;;4.10;99.90;6.60;96093.00;;;;5056281;28;20216;-85
2024/01/01 05:38:47;;;;;;;10.67;3.40;;;3.70;99.90;6.60;96089.00;;;;5054226;28;20228;-86
2024/01/01 05:41:36;;;;;;;8.10;2.77;;;3.90;99.90;6.60;96092.00;;;;5051153;28;20215;-86
2024/01/01 05:44:25;;;;;;;14.87;4.77;;;3.80;99.90;6.60;96090.00;;;;5056905;28;20208;-87
2024/01/01 05:47:16;;;;;;;7.37;2.53;;;3.90;99.90;6.50;96093.00;;;;5057539;28;20279;-86
2024/01/01 05:50:05;;;;;;;9.10;2.90;;;3.60;99.90;6.50;96103.00;;;;5051991;28;20211;-84
2024/01/01 05:52:54;;;;;;;4.83;1.70;;;3.60;99.90;6.40;96102.00;;;;5044560;28;20212;-84
2024/01/01 05:55:43;;;;;;;8.87;2.87;;;4.20;99.90;6.40;96104.00;;;;5043893;28;20204;-84
2024/01/01 05:58:32;;;;;;;8.27;2.70;;;4.00;99.90;6.30;96110.00;;;;5053129;28;20227;-85
2024/01/01 06:01:22;;;;;;;12.37;3.97;;;3.80;99.90;6.10;96098.00;;;;5049611;28;20201;-85
2024/01/01 06:04:12;;;;;;;7.70;2.60;;;4.30;99.90;6.20;96096.00;;;;5049189;28;20689;-84
2024/01/01 06:07:01;;;;;;;8.03;2.70;;;3.60;99.90;5.70;96087.00;;;;5043578;28;20220;-84
2024/01/01 06:09:50;;;;;;;9.40;3.20;;;3.70;99.90;5.40;96078.00;;;;5046610;28;20204;-84
2024/01/01 06:12:39;;;;;;;4.43;1.67;;;3.60;99.90;5.80;96072.00;;;;5050026;28;20212;-83
2024/01/01 06:15:28;;;;;;;12.37;4.20;;;3.20;99.90;5.90;96072.00;;;;5048521;28;20216;-83
2024/01/01 06:18:17;;;;;;;9.73;3.10;;;3.70;99.90;5.80;96078.00;;;;5046961;28;20232;-84
2024/01/01 06:21:07;;;;;;;7.87;2.60;;;3.60;99.90;5.50;96085.00;;;;5045169;28;20580;-85
2024/01/01 06:23:56;;;;;;;10.50;3.40;;;3.60;99.90;5.40;96088.00;;;;5048106;28;20951;-82
2024/01/01 06:26:45;;;;;;;10.60;3.33;;;3.50;99.90;5.60;96092.00;;;;5044077;28;20216;-84
2024/01/01 06:29:34;;;;;;;8.70;2.87;;;3.50;99.90;5.80;96101.00;;;;5042648;28;20212;-85
2024/01/01 06:32:22;;;;;;;14.43;4.67;;;2.90;99.90;5.70;96100.00;;;;5042331;28;20450;-83
2024/01/01 06:35:11;;;;;;;12.97;4.37;;;3.30;99.90;5.60;96108.00;;;;5051781;28;20205;-83
2024/01/01 06:38:02;;;;;;;8.17;2.80;;;3.40;99.90;5.80;96113.00;;;;5045403;28;20322;-82
2024/01/01 06:40:51;;;;;;;16.53;5.27;;;3.40;99.90;6.00;96131.00;;;;5049769;28;20209;-83
2024/01/01 06:43:40;;;;;;;15.13;4.90;;;3.40;99.90;5.60;96134.00;;;;5045966;28;20664;-84
2024/01/01 06:46:29;;;;;;;5.80;2.03;;;3.40;99.90;5.60;96143.00;;;;5048776;28;20224;-83
2024/01/01 06:49:18;;;;;;;9.87;3.27;;;3.40;99.90;5.80;96138.00;;;;5048822;28;20200;-83
2024/01/01 06:52:07;;;;;;;13.00;4.30;;;3.40;99.90;5.80;96146.00;;;;5047959;28;20205;-84
2024/01/01 06:54:57;;;;;;;7.60;2.70;;;3.40;99.90;5.80;96153.00;;;;5049134;28;20196;-83
2024/01/01 06:57:46;;;;;;;12.80;4.20;;;3.40;99.90;5.70;96163.00;;;;5049549;28;20225;-84
2024/01/01 07:00:35;;;;;;;7.27;2.63;;;3.30;99.90;5.60;96171.00;;;;5042769;28;20193;-86
2024/01/01 07:03:24;;;;;;;9.93;3.37;;;3.30;99.90;5.70;96174.00;;;;5047530;28;20720;-83
2024/01/01 07:06:13;;;;;;;12.77;4.03;;;3.30;99.90;5.30;96179.00;;;;5040727;28;20225;-83
2024/01/01 07:09:02;;;;;;;8.77;3.07;;;3.20;99.90;5.50;96203.00;;;;5049614;28;20201;-84
2024/01/01 07:11:56;;;;;;;9.33;3.13;;;3.20;99.90;5.70;96197.00;;;;5039890;28;20205;-85
2024/01/01 07:14:45;;;;;;;7.13;2.50;;;3.20;99.90;5.70;96209.00;;;;5047243;28;20586;-84
2024/01/01 07:17:34;;;;;;;8.33;3.00;;;3.20;99.90;5.80;96215.00;;;;5045130;28;20263;-83
2024/01/01 07:20:23;;;;;;;13.73;4.80;;;3.30;99.90;5.70;96217.00;;;;5046808;28;20584;-82
2024/01/01 07:23:12;;;;;;;11.13;3.73;;;3.20;99.90;5.50;96215.00;;;;5047567;28;20196;-83
2024/01/01 07:26:02;;;;;;;8.13;2.77;;;3.00;99.90;5.80;96219.00;;;;5049280;28;20196;-82
2024/01/01 07:28:52;;;;;;;9.90;3.50;;;3.20;99.90;5.90;96222.00;;;;5043233;28;20201;-83
2024/01/01 07:31:41;;;;;;;18.93;6.07;;;3.20;99.90;5.60;96223.00;;;;5043992;28;20204;-83
2024/01/01 07:34:30;;;;;;;10.40;3.50;;;3.20;99.90;5.50;96232.00;;;;5048365;28;20215;-83
2024/01/01 07:37:18;;;;;;;15.00;4.93;;;3.20;99.90;5.20;96230.00;;;;5049805;28;20240;-83
2024/01/01 07:40:09;;;;;;;11.40;3.83;;;3.20;99.90;5.30;96223.00;;;;5044741;28;20632;-84
2024/01/01 07:42:59;;;;;;;8.10;2.83;;;3.20;99.90;5.30;96219.00;;;;5039617;28;20208;-84
2024/01/01 07:45:49;;;;;;;10.23;3.47;;;3.20;99.90;5.40;96214.00;;;;5048927;28;20204;-84
2024/01/01 07:48:38;;;;;;;7.97;2.80;;;3.20;99.90;5.80;96223.00;;;;5048052;28;20200;-83
2024/01/01 07:51:27;;;;;;;12.77;4.27;;;3.30;99.90;6.00;96236.00;;;;5048220;28;20208;-84
2024/01/01 07:54:16;;;;;;;15.57;5.13;;;3.40;99.90;6.10;96242.00;;;;5044569;28;20680;-84
2024/01/01 07:57:06;;;;;;;8.47;2.90;;;3.40;99.90;6.10;96242.00;;;;5045910;28;20235;-84
2024/01/01 07:59:58;;;;;;;8.33;2.90;;;3.50;99.90;6.20;96246.00;;;;5046207;28;20621;-83
2024/01/01 08:02:48;;;;;;;10.57;3.63;;;3.50;99.90;6.30;96237.00;;;;5045095;28;20581;-83
2024/01/01 08:05:37;;;;;;;9.13;3.13;;;3.60;99.90;6.30;96246.00;;;;5039490;28;20250;-83
2024/01/01 08:08:26;;;;;;;13.80;4.63;;;3.60;99.90;6.40;96243.00;;;;5049877;28;20223;-83
2024/01/01 08:11:15;;;;;;;17.63;5.77;;;3.70;99.90;6.50;96243.00;;;;5045534;28;20231;-83
2024/01/01 08:14:04;;;;;;;10.03;3.53;;;3.80;99.90;6.70;96251.00;;;;5047159;28;20290;-82
2024/01/01 08:16:54;;;;;;;8.50;2.93;;;3.80;99.90;6.70;96248.00;;;;5040461;28;20224;-84
2024/01/01 08:19:44;;;;;;;9.50;3.20;;;3.90;99.90;6.80;96248.00;;;;5047712;28;20220;-83
2024/01/01 08:22:33;;;;;;;8.90;3.03;;;4.00;99.90;6.90;96253.00;;;;5042419;28;20206;-83
2024/01/01 08:25:22;;;;;;;13.10;4.30;;;4.10;99.90;6.80;96262.00;;;;5045556;28;20197;-83
2024/01/01 08:28:11;;;;;;;9.00;3.10;;;4.20;99.90;6.90;96250.00;;;;5044875;28;20699;-82
2024/01/01 08:31:00;;;;;;;13.03;4.30;;;4.30;99.90;7.20;96247.00;;;;5046101;28;20670;-82
2024/01/01 08:33:49;;;;;;;11.77;3.87;;;4.40;99.90;7.60;96258.00;;;;5042767;28;20204;-83
2024/01/01 08:36:39;;;;;;;10.10;3.40;;;4.60;99.90;7.80;96263.00;;;;5047458;28;20216;-83
2024/01/01 08:39:28;;;;;;;13.50;4.47;;;4.70;99.90;8.00;96248.00;;;;5046999;28;20222;-83
2024/01/01 08:42:17;;;;;;;20.17;6.43;;;4.90;99.90;8.10;96248.00;;;;5044400;28;20231;-84
2024/01/01 08:45:09;;;;;;;7.10;2.50;;;5.00;99.90;7.20;96253.00;;;;5037880;28;20205;-83
2024/01/01 08:47:57;;;;;;;7.70;2.57;;;5.00;99.90;7.00;96251.00;;;;5041638;28;20611;-82
2024/01/01 08:50:46;;;;;;;17.60;5.53;;;5.00;99.90;7.40;96251.00;;;;5037872;28;20211;-83
2024/01/01 08:53:37;;;;;;;9.93;3.17;;;;;7.50;96255.00;;;;5039255;28;20207;-84
2024/01/01 08:56:26;;;;;;;13.47;4.20;;;;;7.60;96266.00;;;;5044981;28;20231;-83
2024/01/01 08:59:16;;;;;;;16.57;5.03;;;;;7.80;96267.00;;;;5044477;28;20270;-84
2024/01/01 09:02:06;;;;;;;16.33;4.87;;;;;7.70;96272.00;;;;5047953;28;20203;-84
2024/01/01 09:04:55;;;;;;;17.90;5.40;;;;;8.10;96281.00;;;;5041829;28;20205;-83
2024/01/01 09:07:44;;;;;;;39.97;11.60;;;;;8.60;96282.00;;;;5037763;28;20229;-82
2024/01/01 09:10:35;;;;;;;17.53;5.37;;;;;8.90;96282.00;;;;5041325;28;20219;-83
2024/01/01 09:13:24;;;;;;;27.00;8.10;;;;;8.60;96287.00;;;;5041902;28;20394;-83
2024/01/01 09:16:13;;;;;;;15.37;4.87;;;;;7.90;96303.00;;;;5038986;28;20672;-84
2024/01/01 09:19:03;;;;;;;14.00;4.40;;;;;8.00;96284.00;;;;5036949;28;20232;-83
2024/01/01 09:21:52;;;;;;;15.77;4.93;;;;;8.30;96301.00;;;;5036738;28;20215;-83
2024/01/01 09:24:42;;;;;;;16.67;5.17;;;;;8.20;96293.00;;;;5037215;28;20208;-82
2024/01/01 09:27:32;;;;;;;26.83;7.83;;;;;9.00;96307.00;;;;5036788;28;20255;-84
2024/01/01 09:30:21;;;;;;;30.93;9.27;;;;;8.90;96299.00;;;;5036382;28;20627;-83
2024/01/01 09:33:10;;;;;;;23.73;7.03;;;;;9.10;96294.00;;;;5045948;28;20275;-82
2024/01/01 09:36:00;;;;;;;13.60;4.23;;;;;9.10;96298.00;;;;5045946;28;20699;-84
2024/01/01 09:38:49;;;;;;;14.03;4.67;;;;;8.50;96292.00;;;;5041423;28;20590;-83
2024/01/01 09:41:38;;;;;;;16.27;4.97;;;;;8.10;96280.00;;;;5047206;28;20205;-82
2024/01/01 09:44:28;;;;;;;19.33;5.87;;;;;8.40;96281.00;;;;5048612;28;20220;-82
2024/01/01 09:47:18;;;;;;;25.07;7.63;;;;;8.70;96291.00;;;;5044959;28;20689;-83
2024/01/01 09:50:07;;;;;;;23.70;7.30;;;;;8.10;96284.00;;;;5040374;28;20220;-82
2024/01/01 09:53:00;;;;;;;17.43;5.33;;;;;7.80;96276.00;;;;5044001;28;20280;-82
2024/01/01 09:55:52;;;;;;;15.27;4.67;;;;;7.30;96272.00;;;;5044043;28;20205;-83
2024/01/01 09:58:42;;;;;;;10.63;3.43;;;;;7.30;96285.00;;;;5043731;28;20205;-84
2024/01/01 10:01:34;;;;;;;16.43;5.03;;;;;7.10;96288.00;;;;5039039;28;20209;-81
2024/01/01 10:04:23;;;;;;;22.10;6.57;;;;;7.40;96286.00;;;;5046329;28;20204;-81
2024/01/01 10:07:14;;;;;;;16.60;5.10;;;;;7.50;96292.00;;;;5045794;28;20227;-83
2024/01/01 10:10:03;;;;;;;15.90;4.83;;;;;7.80;96281.00;;;;5042484;28;20240;-82
2024/01/01 10:12:52;;;;;;;23.43;7.07;;;;;7.70;96268.00;;;;5043645;28;20200;-84
2024/01/01 10:15:42;;;;;;;13.63;4.33;;;;;8.40;96277.00;;;;5047370;28;20221;-82
2024/01/01 10:18:33;;;;;;;24.13;7.47;;;;;8.10;96274.00;;;;5042890;28;20350;-83
2024/01/01 10:21:28;;;;;;;25.93;7.83;;;;;7.90;96275.00;;;;5045646;28;20290;-83
2024/01/01 10:24:21;;;;;;;23.10;7.10;;;;;7.80;96288.00;;;;5044601;28;20204;-82
2024/01/01 10:27:12;;;;;;;11.37;3.93;;;;;7.60;96291.00;;;;5044700;28;20758;-82
2024/01/01 10:30:02;;;;;;;13.33;4.40;;;;;7.50;96292.00;;;;5041296;28;20209;-81
2024/01/01 10:32:52;;;;;;;13.90;4.33;;;;;7.40;96284.00;;;;5042222;28;20211;-84
2024/01/01 10:35:43;;;;;;;12.80;4.13;;;;;7.10;96283.00;;;;5045400;28;20205;-83
2024/01/01 10:38:33;;;;;;;14.00;4.47;;;;;8.10;96292.00;;;;5043466;28;20203;-84
2024/01/01 10:41:22;;;;;;;28.03;8.40;;;;;8.50;96303.00;;;;5044209;28;20212;-82
2024/01/01 10:44:11;;;;;;;11.07;4.23;;;;;8.50;96279.00;;;;5046825;28;20566;-84
2024/01/01 10:47:07;;;;;;;14.17;5.07;;;;;8.60;96294.00;;;;5048242;28;20216;-81
2024/01/01 10:50:04;;;;;;;13.90;4.83;;;;;8.50;96284.00;;;;5044829;28;20196;-84
2024/01/01 10:53:05;;;;;;;20.90;7.73;;;;;9.70;96283.00;;;;5042796;28;20219;-85
2024/01/01 10:56:05;;;;;;;18.07;8.53;;;;;10.10;96281.00;;;;5043260;28;20589;-84
2024/01/01 10:59:02;;;;;;;9.77;8.43;;;;;10.20;96296.00;;;;5039530;28;20204;-83
2024/01/01 11:01:53;;;;;;;14.77;11.53;;;;;10.00;96287.00;;;;5045993;28;20673;-84
2024/01/01 11:04:42;;;;;;;17.20;15.53;;;;;10.20;96287.00;;;;5047225;28;20207;-85
2024/01/01 11:08:00;;;;;;;25.53;21.27;;;;;10.80;96299.00;;;;5051385;28;20232;-84
2024/01/01 11:10:49;;;;;;;30.00;22.03;;;;;11.50;96282.00;;;;5042574;28;20701;-83
2024/01/01 11:13:55;;;;;;;27.10;24.63;;;;;12.10;96298.00;;;;5047017;28;20599;-81
2024/01/01 11:16:51;;;;;;;32.73;29.77;;;;;13.00;96287.00;;;;5043040;28;20934;-84
2024/01/01 11:19:46;;;;;;;54.50;50.73;;;;;12.30;96295.00;;;;5040291;28;20796;-86
2024/01/01 11:22:39;;;;;;;74.63;68.53;;;;;12.20;96290.00;;;;5040694;28;20229;-86
2024/01/01 11:25:34;;;;;;;101.40;77.40;;;;;13.10;96297.00;;;;5046842;28;20215;-85
2024/01/01 11:28:38;;;;;;;23.80;10.17;;;;;14.20;96300.00;;;;5040808;28;20205;-85
2024/01/01 11:31:28;;;;;;;28.40;18.60;;;;;14.90;96298.00;;;;5042759;28;20200;-86
2024/01/01 11:34:17;;;;;;;59.87;40.63;;;;;15.20;96314.00;;;;5047063;28;20562;-85
2024/01/01 11:37:08;;;;;;;12.13;4.70;;;;;14.20;96293.00;;;;5054042;28;20226;-84
2024/01/01 11:40:01;;;;;;;12.27;4.37;;;;;14.50;96291.00;;;;5047163;28;20231;-87
2024/01/01 11:42:52;;;;;;;15.00;5.20;;;;;14.30;96298.00;;;;5044669;28;20209;-85
2024/01/01 11:45:42;;;;;;;13.10;4.47;;;;;14.10;96293.00;;;;5051067;28;20200;-85
2024/01/01 11:48:36;;;;;;;16.40;5.63;;;;;13.70;96297.00;;;;5037960;28;20357;-86
2024/01/01 11:51:26;;;;;;;24.50;7.57;;;;;14.20;96295.00;;;;5043374;28;20200;-84
2024/01/01 11:54:16;;;;;;;20.27;6.43;;;;;13.00;96276.00;;;;5047391;28;20211;-82
2024/01/01 11:57:05;;;;;;;15.43;5.07;;;;;12.60;96278.00;;;;5043659;28;20225;-85
2024/01/01 11:59:57;;;;;;;12.77;4.47;;;;;12.70;96283.00;;;;5040927;28;20596;-86
2024/01/01 12:02:46;;;;;;;14.93;4.83;;;;;14.20;96289.00;;;;5045758;28;20215;-85
2024/01/01 12:05:35;;;;;;;19.53;6.43;;;;;14.30;96293.00;;;;5044552;28;20692;-83
2024/01/01 12:08:25;;;;;;;29.03;8.63;;;;;14.00;96295.00;;;;5037681;28;21105;-86
2024/01/01 12:11:18;;;;;;;15.57;5.60;;;;;14.90;96307.00;;;;5039255;28;20220;-83
2024/01/01 12:14:07;;;;;;;13.97;5.97;;;;;13.90;96298.00;;;;5044450;28;20211;-87
2024/01/01 12:16:58;;;;;;;20.77;10.67;;;;;14.30;96305.00;;;;5044881;28;20223;-83
2024/01/01 12:19:47;;;;;;;13.57;8.13;;;;;13.10;96291.00;;;;5048359;28;20203;-85
2024/01/01 12:22:36;;;;;;;17.43;9.47;;;;;12.80;96287.00;;;;5041193;28;20193;-86
2024/01/01 12:25:26;;;;;;;28.60;12.03;;;;;12.40;96285.00;;;;5042875;28;20207;-85
2024/01/01 12:28:18;;;;;;;15.40;9.80;;;;;12.90;96283.00;;;;5044450;28;20205;-83
2024/01/01 12:31:08;;;;;;;14.07;8.80;;;;;13.10;96281.00;;;;5047886;28;20220;-84
2024/01/01 12:33:58;;;;;;;25.10;13.40;;;;;13.30;96284.00;;;;5048017;28;20265;-85
2024/01/01 12:36:48;;;;;;;23.40;18.30;;;;;13.40;96280.00;;;;5041281;28;20222;-87
2024/01/01 12:39:37;;;;;;;23.33;21.23;;;;;12.50;96272.00;;;;5039244;28;20201;-86
2024/01/01 12:42:27;;;;;;;70.33;63.50;;;;;13.70;96286.00;;;;5038213;28;20224;-86
2024/01/01 12:45:16;;;;;;;118.00;108.70;;;;;14.10;96293.00;;;;5045046;28;20209;-85
2024/01/01 12:48:06;;;;;;;100.67;93.67;;;;;13.10;96296.00;;;;5043524;28;20212;-85
2024/01/01 12:50:56;;;;;;;95.37;86.77;;;;;11.90;96301.00;;;;5039946;28;20203;-87
2024/01/01 12:53:46;;;;;;;97.27;89.40;;;;;11.50;96303.00;;;;5041209;28;20587;-84
2024/01/01 12:56:35;;;;;;;96.33;87.57;;;;;13.10;96304.00;;;;5036859;28;20220;-82
2024/01/01 12:59:24;;;;;;;90.23;82.10;;;;;12.40;96313.00;;;;5041449;28;20239;-86
2024/01/01 13:02:13;;;;;;;92.73;84.97;;;;;12.10;96309.00;;;;5041996;28;20228;-82
2024/01/01 13:05:03;;;;;;;89.30;82.20;;;;;13.20;96299.00;;;;5040853;28;20216;-83
2024/01/01 13:07:53;;;;;;;108.40;97.87;;;;;14.00;96305.00;;;;5043966;28;20260;-82
2024/01/01 13:10:42;;;;;;;126.93;114.77;;;;;14.90;96304.00;;;;5044322;28;20208;-82